createdAt,value
2023-02-22T00:01:19.086Z,101619.78
2023-02-22T00:04:22.016Z,101619.78
2023-02-22T00:07:26.318Z,101623.38
2023-02-22T00:10:29.370Z,101622.44
2023-02-22T00:13:32.311Z,101625.13
2023-02-22T00:16:35.345Z,101625.13
2023-02-22T00:19:38.565Z,101626.03
2023-02-22T00:22:43.783Z,101623.38
2023-02-22T00:25:47.491Z,101626.03
2023-02-22T00:28:52.731Z,101620.69
2023-02-22T00:31:55.805Z,101626.97
2023-02-22T00:34:59.012Z,101624.31
2023-02-22T00:38:04.340Z,101622.56
2023-02-22T00:41:07.465Z,101617.22
2023-02-22T00:44:10.395Z,101628.81
2023-02-22T00:47:15.341Z,101619.97
2023-02-22T00:50:19.574Z,101625.28
2023-02-22T00:53:25.210Z,101626.16
2023-02-22T00:56:28.208Z,101620.84
2023-02-22T00:59:31.783Z,101628.81
2023-02-22T01:02:35.297Z,101620.84
2023-02-22T01:05:38.741Z,101627.06
2023-02-22T01:08:47.421Z,101624.41
2023-02-22T01:11:55.189Z,101623.53
2023-02-22T01:14:59.551Z,101619.06
2023-02-22T01:18:02.559Z,101623.53
2023-02-22T01:21:06.514Z,101613.81
2023-02-22T01:24:11.548Z,101615.59
2023-02-22T01:27:15.120Z,101615.59
2023-02-22T01:30:22.566Z,101617.31
2023-02-22T01:33:27.148Z,101622.66
2023-02-22T01:36:30.027Z,101615.59
2023-02-22T01:39:34.555Z,101619.06
2023-02-22T01:42:38.128Z,101617.31
2023-02-22T01:45:55.384Z,101610.28
2023-02-22T01:49:02.242Z,101612.94
2023-02-22T01:52:09.929Z,101618.25
2023-02-22T01:55:14.325Z,101617.31
2023-02-22T01:58:19.846Z,101618.19
2023-02-22T02:01:25.226Z,101611.16
2023-02-22T02:04:29.109Z,101612.00
2023-02-22T02:07:32.048Z,101618.19
2023-02-22T02:10:36.634Z,101614.66
2023-02-22T02:13:41.996Z,101616.41
2023-02-22T02:16:48.661Z,101611.00
2023-02-22T02:19:59.351Z,101604.84
2023-02-22T02:23:13.370Z,101609.28
2023-02-22T02:26:48.594Z,101609.28
2023-02-22T02:30:21.478Z,101604.88
2023-02-22T02:33:32.745Z,101605.75
2023-02-22T02:36:43.034Z,101604.00
2023-02-22T02:39:54.145Z,101609.31
2023-02-22T02:43:03.054Z,101606.66
2023-02-22T02:46:11.203Z,101612.00
2023-02-22T02:49:20.266Z,101612.00
2023-02-22T02:52:26.105Z,101610.28
2023-02-22T02:55:31.610Z,101609.31
2023-02-22T02:58:34.912Z,101602.22
2023-02-22T03:01:52.902Z,101602.22
2023-02-22T03:05:17.659Z,101603.09
2023-02-22T03:08:28.880Z,101600.41
2023-02-22T03:11:43.142Z,101592.44
2023-02-22T03:14:55.989Z,101583.56
2023-02-22T03:18:07.631Z,101580.88
2023-02-22T03:21:22.753Z,101585.34
2023-02-22T03:24:31.248Z,101585.34
2023-02-22T03:27:43.595Z,101593.34
2023-02-22T03:30:52.825Z,101585.34
2023-02-22T03:34:01.938Z,101596.88
2023-02-22T03:37:15.918Z,101601.34
2023-02-22T03:40:26.409Z,101593.34
2023-02-22T03:43:38.046Z,101600.50
2023-02-22T03:46:47.318Z,101602.22
2023-02-22T03:49:55.703Z,101599.53
2023-02-22T03:53:00.112Z,101596.00
2023-02-22T03:56:10.468Z,101605.81
2023-02-22T03:59:14.733Z,101604.88
2023-02-22T04:02:19.079Z,101601.34
2023-02-22T04:05:24.849Z,101606.66
2023-02-22T04:08:30.265Z,101615.53
2023-02-22T04:11:33.306Z,101615.50
2023-02-22T04:14:36.482Z,101620.84
2023-02-22T04:17:39.425Z,101620.84
2023-02-22T04:20:45.352Z,101621.69
2023-02-22T04:23:57.764Z,101611.91
2023-02-22T04:27:00.723Z,101621.69
2023-02-22T04:30:05.957Z,101616.34
2023-02-22T04:33:11.784Z,101622.63
2023-02-22T04:36:16.109Z,101619.06
2023-02-22T04:39:21.820Z,101617.31
2023-02-22T04:42:27.117Z,101614.66
2023-02-22T04:45:31.437Z,101615.59
2023-02-22T04:48:34.673Z,101616.47
2023-02-22T04:51:37.669Z,101620.00
2023-02-22T04:54:47.690Z,101610.28
2023-02-22T04:57:50.786Z,101611.16
2023-02-22T05:00:54.125Z,101606.66
2023-02-22T05:03:57.145Z,101613.75
2023-02-22T05:07:00.112Z,101609.28
2023-02-22T05:10:05.189Z,101610.16
2023-02-22T05:13:09.271Z,101606.56
2023-02-22T05:16:12.566Z,101603.03
2023-02-22T05:19:15.594Z,101601.22
2023-02-22T05:22:18.820Z,101607.44
2023-02-22T05:25:23.295Z,101611.00
2023-02-22T05:28:26.946Z,101617.22
2023-02-22T05:31:30.056Z,101613.69
2023-02-22T05:34:33.780Z,101609.16
2023-02-22T05:37:37.234Z,101615.38
2023-02-22T05:40:42.561Z,101617.13
2023-02-22T05:43:46.082Z,101617.13
2023-02-22T05:46:49.178Z,101613.56
2023-02-22T05:49:52.193Z,101613.50
2023-02-22T05:52:55.517Z,101613.50
2023-02-22T05:56:00.042Z,101615.25
2023-02-22T05:59:03.241Z,101623.25
2023-02-22T06:02:06.329Z,101620.59
2023-02-22T06:05:09.827Z,101615.25
2023-02-22T06:08:12.929Z,101613.44
2023-02-22T06:11:17.721Z,101615.25
2023-02-22T06:14:21.029Z,101618.78
2023-02-22T06:17:24.049Z,101627.66
2023-02-22T06:20:28.669Z,101632.97
2023-02-22T06:23:31.811Z,101632.09
2023-02-22T06:26:36.368Z,101637.44
2023-02-22T06:29:39.364Z,101638.31
2023-02-22T06:32:42.515Z,101636.59
2023-02-22T06:35:46.807Z,101643.66
2023-02-22T06:38:49.799Z,101643.66
2023-02-22T06:41:56.379Z,101641.91
2023-02-22T06:44:59.376Z,101646.31
2023-02-22T06:48:02.499Z,101648.97
2023-02-22T06:51:08.242Z,101647.25
2023-02-22T06:54:11.690Z,101651.66
2023-02-22T06:57:16.196Z,101661.41
2023-02-22T07:00:21.012Z,101656.06
2023-02-22T07:03:24.065Z,101663.13
2023-02-22T07:06:27.100Z,101663.13
2023-02-22T07:09:30.212Z,101665.78
2023-02-22T07:12:34.641Z,101664.88
2023-02-22T07:15:38.009Z,101665.75
2023-02-22T07:18:41.040Z,101666.59
2023-02-22T07:21:44.077Z,101667.53
2023-02-22T07:24:47.876Z,101663.13
2023-02-22T07:27:53.459Z,101678.22
2023-02-22T07:30:56.496Z,101674.72
2023-02-22T07:33:59.509Z,101672.97
2023-02-22T07:37:02.729Z,101670.31
2023-02-22T07:40:06.239Z,101673.91
2023-02-22T07:43:18.453Z,101671.25
2023-02-22T07:46:21.793Z,101668.63
2023-02-22T07:49:24.791Z,101662.44
2023-02-22T07:52:27.797Z,101665.09
2023-02-22T07:55:32.894Z,101665.09
2023-02-22T07:58:37.252Z,101665.09
2023-02-22T08:01:40.433Z,101665.94
2023-02-22T08:04:43.921Z,101667.78
2023-02-22T08:07:46.935Z,101663.34
2023-02-22T08:10:51.489Z,101659.81
2023-02-22T08:13:55.913Z,101659.81
2023-02-22T08:16:58.892Z,101651.88
2023-02-22T08:20:03.284Z,101660.75
2023-02-22T08:23:08.146Z,101652.75
2023-02-22T08:26:15.616Z,101662.53
2023-02-22T08:29:20.023Z,101664.31
2023-02-22T08:32:23.904Z,101661.66
2023-02-22T08:35:28.098Z,101664.31
2023-02-22T08:38:32.696Z,101659.00
2023-02-22T08:41:35.617Z,101662.53
2023-02-22T08:44:40.672Z,101665.13
2023-02-22T08:47:44.202Z,101664.28
2023-02-22T08:50:47.275Z,101660.75
2023-02-22T08:53:50.221Z,101663.41
2023-02-22T08:56:53.173Z,101664.31
2023-02-22T08:59:57.459Z,101657.22
2023-02-22T09:03:00.617Z,101660.81
2023-02-22T09:06:05.049Z,101653.72
2023-02-22T09:09:08.104Z,101658.16
2023-02-22T09:12:11.301Z,101660.81
2023-02-22T09:15:16.374Z,101671.47
2023-02-22T09:18:21.105Z,101667.88
2023-02-22T09:21:24.173Z,101662.53
2023-02-22T09:24:27.970Z,101661.63
2023-02-22T09:27:30.949Z,101667.81
2023-02-22T09:30:37.393Z,101672.28
2023-02-22T09:33:42.355Z,101670.44
2023-02-22T09:36:46.627Z,101671.34
2023-02-22T09:39:51.289Z,101666.91
2023-02-22T09:43:03.575Z,101662.44
2023-02-22T09:46:19.409Z,101665.09
2023-02-22T09:49:26.110Z,101663.34
2023-02-22T09:52:32.519Z,101663.34
2023-02-22T09:55:39.102Z,101658.97
2023-02-22T09:58:46.016Z,101655.41
2023-02-22T10:01:58.406Z,101652.69
2023-02-22T10:05:06.670Z,101651.78
2023-02-22T10:08:14.245Z,101649.09
2023-02-22T10:11:28.917Z,101646.44
2023-02-22T10:15:06.304Z,101647.34
2023-02-22T10:18:33.802Z,101647.34
2023-02-22T10:21:55.137Z,101640.31
2023-02-22T10:25:02.318Z,101631.44
2023-02-22T10:28:14.521Z,101635.88
2023-02-22T10:31:22.890Z,101635.88
2023-02-22T10:34:29.358Z,101632.34
2023-02-22T10:37:34.368Z,101632.34
2023-02-22T10:40:39.325Z,101638.56
2023-02-22T10:43:44.144Z,101641.22
2023-02-22T10:46:48.461Z,101638.56
2023-02-22T10:49:56.642Z,101634.97
2023-02-22T10:52:59.571Z,101635.81
2023-02-22T10:56:15.821Z,101634.97
2023-02-22T10:59:29.701Z,101632.31
2023-02-22T11:02:35.168Z,101634.97
2023-02-22T11:05:41.327Z,101629.63
2023-02-22T11:08:46.466Z,101626.09
2023-02-22T11:11:51.197Z,101622.56
2023-02-22T11:14:54.414Z,101626.09
2023-02-22T11:18:01.387Z,101621.69
2023-02-22T11:21:10.280Z,101620.84
2023-02-22T11:27:28.451Z,101614.56
2023-02-22T11:30:35.139Z,101616.31
2023-02-22T11:33:38.993Z,101610.97
2023-02-22T11:36:44.170Z,101605.66
2023-02-22T11:39:47.229Z,101603.81
2023-02-22T11:43:08.326Z,101607.38
2023-02-22T11:46:14.790Z,101598.50
2023-02-22T11:49:20.108Z,101598.56
2023-02-22T11:52:30.970Z,101592.31
2023-02-22T11:55:43.233Z,101587.00
2023-02-22T11:58:51.657Z,101574.56
2023-02-22T12:01:59.979Z,101580.78
2023-02-22T12:05:24.093Z,101574.56
2023-02-22T12:08:37.661Z,101576.31
2023-02-22T12:11:51.204Z,101564.78
2023-02-22T12:15:13.680Z,101572.72
2023-02-22T12:18:23.193Z,101571.00
2023-02-22T12:21:29.856Z,101570.13
2023-02-22T12:24:40.796Z,101572.72
2023-02-22T12:27:49.252Z,101568.34
2023-02-22T12:30:58.349Z,101570.13
2023-02-22T12:34:09.522Z,101569.25
2023-02-22T12:37:18.573Z,101563.91
2023-02-22T12:40:31.808Z,101563.91
2023-02-22T12:43:41.764Z,101565.69
2023-02-22T12:46:49.346Z,101569.25
2023-02-22T12:50:00.378Z,101563.91
2023-02-22T12:53:14.008Z,101569.25
2023-02-22T12:56:25.281Z,101560.34
2023-02-22T12:59:34.453Z,101560.34
2023-02-22T13:02:43.681Z,101560.34
2023-02-22T13:05:53.612Z,101559.47
2023-02-22T13:09:09.695Z,101563.91
2023-02-22T13:12:20.298Z,101560.34
2023-02-22T13:15:30.370Z,101551.47
2023-02-22T13:18:42.023Z,101560.34
2023-02-22T13:21:50.670Z,101554.13
2023-02-22T13:25:12.276Z,101555.91
2023-02-22T13:28:23.887Z,101550.59
2023-02-22T13:31:47.602Z,101545.25
2023-02-22T13:35:03.025Z,101545.25
2023-02-22T13:38:41.898Z,101549.66
2023-02-22T13:42:09.501Z,101555.00
2023-02-22T13:45:53.146Z,101549.66
2023-02-22T13:49:34.283Z,101549.66
2023-02-22T13:52:40.728Z,101543.47
2023-02-22T13:55:49.597Z,101543.41
2023-02-22T13:58:54.907Z,101553.19
2023-02-22T14:02:04.253Z,101543.47
2023-02-22T14:05:51.127Z,101546.13
2023-02-22T14:08:54.205Z,101547.91
2023-02-22T14:11:57.838Z,101548.78
2023-02-22T14:15:29.809Z,101544.28
2023-02-22T14:18:38.938Z,101538.06
2023-02-22T14:21:57.921Z,101538.06
2023-02-22T14:25:00.873Z,101540.66
2023-02-22T14:28:06.288Z,101530.00
2023-02-22T14:31:17.464Z,101522.94
2023-02-22T14:34:42.504Z,101519.41
2023-02-22T14:37:50.600Z,101519.41
2023-02-22T14:40:55.237Z,101515.88
2023-02-22T14:44:03.785Z,101518.53
2023-02-22T14:47:08.852Z,101516.81
2023-02-22T14:50:23.175Z,101518.59
2023-02-22T14:53:30.843Z,101513.28
2023-02-22T14:56:41.296Z,101514.22
2023-02-22T15:00:02.596Z,101521.25
2023-02-22T15:03:05.888Z,101514.16
2023-02-22T15:06:16.680Z,101507.03
2023-02-22T15:09:27.711Z,101509.69
2023-02-22T15:12:32.114Z,101507.03
2023-02-22T15:15:36.014Z,101506.16
2023-02-22T15:18:42.984Z,101495.50
2023-02-22T15:21:50.023Z,101500.81
2023-02-22T15:25:00.173Z,101500.81
2023-02-22T15:28:05.318Z,101495.50
2023-02-22T15:31:28.123Z,101501.69
2023-02-22T15:34:33.109Z,101499.94
2023-02-22T15:37:37.586Z,101499.94
2023-02-22T15:40:43.246Z,101497.19
2023-02-22T15:43:46.506Z,101496.38
2023-02-22T15:46:49.643Z,101496.38
2023-02-22T15:50:23.727Z,101491.88
2023-02-22T15:53:32.525Z,101492.75
2023-02-22T15:56:36.186Z,101492.75
2023-02-22T15:59:44.884Z,101490.16
2023-02-22T16:02:49.015Z,101483.94
2023-02-22T16:05:55.616Z,101489.28
2023-02-22T16:09:02.307Z,101483.94
2023-02-22T16:12:10.297Z,101494.63
2023-02-22T16:15:18.624Z,101487.56
2023-02-22T16:18:28.484Z,101492.88
2023-02-22T16:21:53.493Z,101491.06
2023-02-22T16:25:16.645Z,101483.94
2023-02-22T16:28:28.002Z,101480.38
2023-02-22T16:31:33.880Z,101485.69
2023-02-22T16:34:36.964Z,101482.09
2023-02-22T16:37:39.980Z,101492.75
2023-02-22T16:40:50.522Z,101484.75
2023-02-22T16:43:55.375Z,101481.19
2023-02-22T16:47:00.553Z,101487.41
2023-02-22T16:50:03.732Z,101486.50
2023-02-22T16:53:06.743Z,101482.03
2023-02-22T16:56:16.163Z,101482.03
2023-02-22T16:59:19.805Z,101477.50
2023-02-22T17:02:23.189Z,101474.78
2023-02-22T17:05:26.529Z,101475.59
2023-02-22T17:08:29.581Z,101477.31
2023-02-22T17:11:34.638Z,101466.59
2023-02-22T17:14:37.781Z,101477.28
2023-02-22T17:17:40.705Z,101481.59
2023-02-22T17:20:44.998Z,101475.41
2023-02-22T17:23:48.430Z,101470.00
2023-02-22T17:26:53.138Z,101478.00
2023-02-22T17:29:56.257Z,101470.00
2023-02-22T17:33:03.611Z,101478.00
2023-02-22T17:36:07.369Z,101478.00
2023-02-22T17:39:10.972Z,101471.78
2023-02-22T17:42:15.558Z,101472.66
2023-02-22T17:45:18.533Z,101467.34
2023-02-22T17:48:23.993Z,101463.72
2023-02-22T17:51:27.417Z,101469.94
2023-02-22T17:54:30.573Z,101473.47
2023-02-22T17:57:35.613Z,101471.69
2023-02-22T18:00:39.468Z,101472.53
2023-02-22T18:03:42.421Z,101477.88
2023-02-22T18:06:46.331Z,101477.88
2023-02-22T18:09:49.913Z,101473.41
2023-02-22T18:12:55.163Z,101475.19
2023-02-22T18:16:00.040Z,101479.69
2023-02-22T18:19:03.439Z,101470.81
2023-02-22T18:22:08.289Z,101473.47
2023-02-22T18:25:13.744Z,101475.25
2023-02-22T18:28:19.278Z,101474.38
2023-02-22T18:31:24.889Z,101482.38
2023-02-22T18:34:28.173Z,101485.06
2023-02-22T18:37:31.222Z,101480.59
2023-02-22T18:40:34.786Z,101477.06
2023-02-22T18:43:39.908Z,101485.06
2023-02-22T18:46:44.499Z,101478.00
2023-02-22T18:49:48.612Z,101484.22
2023-02-22T18:52:51.688Z,101477.13
2023-02-22T18:55:54.784Z,101471.78
2023-02-22T18:59:01.644Z,101472.66
2023-02-22T19:02:04.696Z,101476.25
2023-02-22T19:05:09.874Z,101470.06
2023-02-22T19:08:13.035Z,101468.31
2023-02-22T19:11:19.313Z,101473.66
2023-02-22T19:14:23.747Z,101478.13
2023-02-22T19:17:28.576Z,101471.88
2023-02-22T19:20:33.300Z,101478.13
2023-02-22T19:23:37.488Z,101484.25
2023-02-22T19:26:50.220Z,101482.53
2023-02-22T19:29:54.809Z,101486.91
2023-02-22T19:32:57.871Z,101490.53
2023-02-22T19:36:01.014Z,101491.41
2023-02-22T19:39:04.810Z,101490.53
2023-02-22T19:42:09.720Z,101495.88
2023-02-22T19:45:17.046Z,101489.66
2023-02-22T19:48:20.771Z,101488.78
2023-02-22T19:51:25.774Z,101489.66
2023-02-22T19:54:29.079Z,101488.78
2023-02-22T19:57:32.421Z,101486.06
2023-02-22T20:00:37.220Z,101489.59
2023-02-22T20:03:41.688Z,101491.34
2023-02-22T20:06:46.495Z,101499.34
2023-02-22T20:09:49.776Z,101488.66
2023-02-22T20:12:52.766Z,101494.00
2023-02-22T20:15:57.109Z,101505.53
2023-02-22T20:19:00.561Z,101502.91
2023-02-22T20:22:03.873Z,101499.34
2023-02-22T20:25:07.410Z,101494.91
2023-02-22T20:28:11.049Z,101488.66
2023-02-22T20:31:17.179Z,101499.34
2023-02-22T20:34:20.369Z,101492.25
2023-02-22T20:37:23.301Z,101486.91
2023-02-22T20:40:26.364Z,101498.47
2023-02-22T20:43:29.384Z,101487.78
2023-02-22T20:46:36.127Z,101484.22
2023-02-22T20:49:39.800Z,101480.66
2023-02-22T20:52:42.940Z,101478.00
2023-02-22T20:55:50.381Z,101476.22
2023-02-22T20:58:53.653Z,101477.06
2023-02-22T21:01:58.237Z,101482.38
2023-02-22T21:05:01.308Z,101490.38
2023-02-22T21:08:04.291Z,101485.06
2023-02-22T21:11:11.820Z,101482.38
2023-02-22T21:14:18.755Z,101482.38
2023-02-22T21:17:28.782Z,101482.38
2023-02-22T21:20:32.074Z,101481.47
2023-02-22T21:23:35.080Z,101485.94
2023-02-22T21:26:38.152Z,101492.13
2023-02-22T21:29:41.240Z,101480.59
2023-02-22T21:32:45.739Z,101477.88
2023-02-22T21:35:49.215Z,101481.47
2023-02-22T21:38:54.902Z,101481.47
2023-02-22T21:42:00.532Z,101474.38
2023-02-22T21:45:03.788Z,101473.47
2023-02-22T21:48:08.476Z,101476.16
2023-02-22T21:51:13.896Z,101469.94
2023-02-22T21:54:16.959Z,101466.38
2023-02-22T21:57:20.463Z,101465.47
2023-02-22T22:00:29.347Z,101465.56
2023-02-22T22:03:36.281Z,101458.41
2023-02-22T22:06:39.274Z,101462.88
2023-02-22T22:09:43.284Z,101464.69
2023-02-22T22:12:46.498Z,101460.22
2023-02-22T22:15:49.726Z,101456.69
2023-02-22T22:18:54.156Z,101458.41
2023-02-22T22:21:57.515Z,101451.34
2023-02-22T22:25:03.398Z,101450.47
2023-02-22T22:28:07.812Z,101451.34
2023-02-22T22:31:12.246Z,101455.81
2023-02-22T22:34:16.727Z,101452.25
2023-02-22T22:37:22.606Z,101443.41
2023-02-22T22:40:25.638Z,101452.41
2023-02-22T22:43:30.285Z,101448.88
2023-02-22T22:46:33.404Z,101438.31
2023-02-22T22:49:40.378Z,101443.66
2023-02-22T22:52:43.357Z,101436.59
2023-02-22T22:55:46.364Z,101448.16
2023-02-22T22:58:51.083Z,101436.66
2023-02-22T23:01:56.622Z,101434.00
2023-02-22T23:05:01.181Z,101434.91
2023-02-22T23:08:05.723Z,101434.00
2023-02-22T23:11:09.635Z,101434.00
2023-02-22T23:14:14.934Z,101437.56
2023-02-22T23:17:31.453Z,101438.44
2023-02-22T23:20:39.070Z,101429.50
2023-02-22T23:23:42.221Z,101433.94
2023-02-22T23:26:48.636Z,101433.06
2023-02-22T23:29:52.520Z,101427.72
2023-02-22T23:32:57.105Z,101425.06
2023-02-22T23:36:01.429Z,101423.25
2023-02-22T23:39:06.513Z,101432.13
2023-02-22T23:42:09.690Z,101430.38
2023-02-22T23:45:22.421Z,101428.59
2023-02-22T23:48:26.284Z,101434.00
2023-02-22T23:51:39.235Z,101428.66
2023-02-22T23:54:44.103Z,101426.03
2023-02-22T23:57:47.573Z,101415.38
